Simi, Greece
Current Conditions -  °F | °C
As of 11:50 AM on Wednesday 26 Nov 2014 (Local Time) from LGRP Reporting Station
Few Clouds Few Clouds  
Wind Chill: 59°   Ceiling: Unl
Heat Index: 59°   Visibility: 6mi
Dew Point: 43°   Wind: 18mph
Humidity: 55%   Direction: 290°WNW
Pressure: 29.91"   Gusts: NA
Location:  36.61°N, 27.84°E
Report Text: LGRP 260950Z 29016KT 9999 FEW018 15/06 Q1013 NOSIG
Loading
Personal Weather Stations






























Interactive Weather Map New forecast layout! Learn more

10-Day Weather Forecast

Advertisements
Track Severe Weather on mobile